Rock Springs Sweetwater County Airport
KRKS : now visible

Airfield :











YOU CAN JOIN US ON...

 
LOGIN :

Register | Disclaimer

   EN    FR    IT 

 









Legend :    VFR   Marginal VFR   IFR   Intensive IFR   Very Intensive IFR
Visi :
Ceiling :
>= 8 km
>= 3000ft
5 to 8 km
1000 to 3000 ft
1500m to 5 km
500 to 1000 ft
800 to 1500m
200 to 500 ft
< 800m
< 200 ft
Symbols :   Thunderstorms  Fog  Heavy snow  Heavy precipitations  Wind > 20 kt






- Airport Elevation : 6764 ft
- IATA code : RKS


KRKS - Rock Springs Sweetwater County

CURRENT METAR :
  • 241054Z AUTO 28021G31KT 10SM FEW022 OVC049 M04/M08 A2990 RMK AO2 PK WND 29043/1011 SNE40 SLP144 P0000 T10441078

EXPIRED METARs :
  • 241043Z AUTO 27018G30KT 9SM BKN039 BKN070 M04/M08 A2989 RMK AO2 PK WND 29043/1011 SNE40 P0000 T10391078
  • 241029Z AUTO 28022G31KT 3SM -SN FEW013 BKN025 OVC070 M04/M07 A2990 RMK AO2 PK WND 29043/1011 P0000 T10391067
  • 240954Z AUTO 27024G35KT 1SM -SN BR VV018 M03/M05 A2989 RMK AO2 PK WND 26048/0906 SNB30 SLP139 P0000 T10331050
  • 240939Z AUTO 25020G35KT 2SM -SN BKN026 BKN037 OVC080 M03/M06 A2988 RMK AO2 PK WND 26048/0906 SNB30 P0000 T10281056
  • 240934Z AUTO 26024G38KT 1 3/4SM -SN SCT020 BKN047 OVC075 M02/M06 A2987 RMK AO2 PK WND 26048/0906 SNB30 P0000 T10221056
  • 240854Z AUTO 25023G30KT 10SM FEW070 SCT090 BKN110 00/M08 A2987 RMK AO2 PK WND 23030/0759 SLP120 T00001083 56022

TAF KRKS
Valid from the 24 at 10:00 until the 25 at 06:00 UTC


241002Z 2410/2506 26024G34KT P6SM VCSH BKN050
TEMPO 2410/2412 1SM -SN BKN015
FM241500 27019G29KT P6SM SCT050 BKN070
FM250100 27016KT P6SM BKN060



MET'MAP, your aeronautical weather chart ! - Copyright ORBIFLY December 2007 - Disclaimer

ORBIFLY MET'MAP TEAM :

Programming & Development : Alexandra Zaïnal
Concept & original design : Baudouin d'Aumeries
Assistance for programming : Marc-Olivier Méhu
Technical & hardware support : Manuel Goepfert

Contact : metmap@orbifly.com




SOURCES & CREDITS :

   NOAA       Earth
Advisory